sensor_id;sensor_type;location;lat;lon;timestamp;P1;durP1;ratioP1;P2;durP2;ratioP2
50355;SDS011;36264;51.296;-0.602;2023-06-10T00:01:44;8.10;;;4.97;;
50355;SDS011;36264;51.296;-0.602;2023-06-10T00:04:13;10.52;;;5.55;;
50355;SDS011;36264;51.296;-0.602;2023-06-10T00:06:39;9.55;;;4.80;;
50355;SDS011;36264;51.296;-0.602;2023-06-10T00:09:05;11.55;;;5.57;;
50355;SDS011;36264;51.296;-0.602;2023-06-10T00:11:36;12.40;;;5.47;;
50355;SDS011;36264;51.296;-0.602;2023-06-10T00:14:02;6.68;;;4.43;;
50355;SDS011;36264;51.296;-0.602;2023-06-10T00:16:28;7.72;;;4.95;;
50355;SDS011;36264;51.296;-0.602;2023-06-10T00:18:54;9.27;;;4.63;;
50355;SDS011;36264;51.296;-0.602;2023-06-10T00:21:25;7.20;;;4.20;;
50355;SDS011;36264;51.296;-0.602;2023-06-10T00:24:02;7.90;;;4.55;;
50355;SDS011;36264;51.296;-0.602;2023-06-10T00:26:31;11.05;;;5.97;;
50355;SDS011;36264;51.296;-0.602;2023-06-10T00:28:57;11.75;;;5.95;;
50355;SDS011;36264;51.296;-0.602;2023-06-10T00:31:23;11.73;;;5.65;;
50355;SDS011;36264;51.296;-0.602;2023-06-10T00:33:48;11.10;;;5.50;;
50355;SDS011;36264;51.296;-0.602;2023-06-10T00:36:13;10.07;;;5.30;;
50355;SDS011;36264;51.296;-0.602;2023-06-10T00:38:39;9.40;;;4.90;;
50355;SDS011;36264;51.296;-0.602;2023-06-10T00:41:07;13.52;;;5.72;;
50355;SDS011;36264;51.296;-0.602;2023-06-10T00:43:33;8.63;;;4.75;;
50355;SDS011;36264;51.296;-0.602;2023-06-10T00:45:58;8.13;;;5.35;;
50355;SDS011;36264;51.296;-0.602;2023-06-10T00:48:24;7.05;;;4.22;;
50355;SDS011;36264;51.296;-0.602;2023-06-10T00:50:50;10.27;;;5.40;;
50355;SDS011;36264;51.296;-0.602;2023-06-10T00:53:16;9.93;;;5.07;;
50355;SDS011;36264;51.296;-0.602;2023-06-10T00:55:41;9.18;;;4.63;;
50355;SDS011;36264;51.296;-0.602;2023-06-10T00:58:07;10.13;;;4.78;;
50355;SDS011;36264;51.296;-0.602;2023-06-10T01:00:33;9.25;;;4.30;;
50355;SDS011;36264;51.296;-0.602;2023-06-10T01:02:58;7.20;;;4.22;;
50355;SDS011;36264;51.296;-0.602;2023-06-10T01:05:24;10.15;;;5.00;;
50355;SDS011;36264;51.296;-0.602;2023-06-10T01:10:54;11.77;;;5.03;;
50355;SDS011;36264;51.296;-0.602;2023-06-10T01:13:23;9.07;;;4.75;;
50355;SDS011;36264;51.296;-0.602;2023-06-10T01:15:53;10.95;;;5.20;;
50355;SDS011;36264;51.296;-0.602;2023-06-10T01:18:19;8.13;;;4.43;;
50355;SDS011;36264;51.296;-0.602;2023-06-10T01:20:47;9.63;;;4.75;;
50355;SDS011;36264;51.296;-0.602;2023-06-10T01:23:13;8.80;;;5.03;;
50355;SDS011;36264;51.296;-0.602;2023-06-10T01:25:41;10.18;;;5.18;;
50355;SDS011;36264;51.296;-0.602;2023-06-10T01:28:14;9.30;;;4.85;;
50355;SDS011;36264;51.296;-0.602;2023-06-10T01:30:51;8.55;;;4.95;;
50355;SDS011;36264;51.296;-0.602;2023-06-10T01:33:26;11.23;;;5.13;;
50355;SDS011;36264;51.296;-0.602;2023-06-10T01:35:55;6.97;;;4.40;;
50355;SDS011;36264;51.296;-0.602;2023-06-10T01:38:22;7.82;;;3.92;;
50355;SDS011;36264;51.296;-0.602;2023-06-10T01:40:55;6.22;;;4.30;;
50355;SDS011;36264;51.296;-0.602;2023-06-10T01:43:21;10.30;;;6.40;;
50355;SDS011;36264;51.296;-0.602;2023-06-10T01:45:46;9.68;;;4.70;;
50355;SDS011;36264;51.296;-0.602;2023-06-10T01:48:12;6.78;;;4.07;;
50355;SDS011;36264;51.296;-0.602;2023-06-10T01:50:37;7.50;;;4.40;;
50355;SDS011;36264;51.296;-0.602;2023-06-10T01:53:03;8.38;;;4.45;;
50355;SDS011;36264;51.296;-0.602;2023-06-10T01:55:29;10.65;;;4.32;;
50355;SDS011;36264;51.296;-0.602;2023-06-10T01:57:54;7.78;;;4.03;;
50355;SDS011;36264;51.296;-0.602;2023-06-10T02:00:20;10.68;;;4.55;;
50355;SDS011;36264;51.296;-0.602;2023-06-10T02:02:45;9.35;;;4.45;;
50355;SDS011;36264;51.296;-0.602;2023-06-10T02:05:10;10.52;;;4.40;;
50355;SDS011;36264;51.296;-0.602;2023-06-10T02:07:37;7.80;;;4.43;;
50355;SDS011;36264;51.296;-0.602;2023-06-10T02:10:04;13.38;;;4.65;;
50355;SDS011;36264;51.296;-0.602;2023-06-10T02:12:31;7.15;;;4.35;;
50355;SDS011;36264;51.296;-0.602;2023-06-10T02:14:57;6.68;;;3.88;;
50355;SDS011;36264;51.296;-0.602;2023-06-10T02:17:22;9.23;;;4.45;;
50355;SDS011;36264;51.296;-0.602;2023-06-10T02:19:48;7.90;;;4.03;;
50355;SDS011;36264;51.296;-0.602;2023-06-10T02:22:21;6.50;;;3.70;;
50355;SDS011;36264;51.296;-0.602;2023-06-10T02:24:47;6.68;;;3.78;;
50355;SDS011;36264;51.296;-0.602;2023-06-10T02:27:14;11.43;;;4.57;;
50355;SDS011;36264;51.296;-0.602;2023-06-10T02:29:40;8.75;;;3.72;;
50355;SDS011;36264;51.296;-0.602;2023-06-10T02:32:06;7.30;;;4.00;;
50355;SDS011;36264;51.296;-0.602;2023-06-10T02:34:32;11.45;;;4.40;;
50355;SDS011;36264;51.296;-0.602;2023-06-10T02:36:58;16.10;;;5.05;;
50355;SDS011;36264;51.296;-0.602;2023-06-10T02:39:24;8.98;;;4.35;;
50355;SDS011;36264;51.296;-0.602;2023-06-10T02:41:49;12.32;;;4.93;;
50355;SDS011;36264;51.296;-0.602;2023-06-10T02:44:15;10.05;;;4.65;;
50355;SDS011;36264;51.296;-0.602;2023-06-10T02:46:40;8.30;;;4.68;;
50355;SDS011;36264;51.296;-0.602;2023-06-10T02:49:05;7.70;;;4.22;;
50355;SDS011;36264;51.296;-0.602;2023-06-10T02:51:31;7.78;;;4.13;;
50355;SDS011;36264;51.296;-0.602;2023-06-10T02:53:56;12.23;;;4.63;;
50355;SDS011;36264;51.296;-0.602;2023-06-10T02:56:21;10.27;;;4.50;;
50355;SDS011;36264;51.296;-0.602;2023-06-10T02:58:47;12.73;;;5.65;;
50355;SDS011;36264;51.296;-0.602;2023-06-10T03:01:13;7.45;;;4.20;;
50355;SDS011;36264;51.296;-0.602;2023-06-10T03:03:39;6.60;;;3.72;;
50355;SDS011;36264;51.296;-0.602;2023-06-10T03:06:07;7.10;;;3.75;;
50355;SDS011;36264;51.296;-0.602;2023-06-10T03:08:35;7.40;;;3.72;;
50355;SDS011;36264;51.296;-0.602;2023-06-10T03:11:00;11.63;;;4.10;;
50355;SDS011;36264;51.296;-0.602;2023-06-10T03:13:26;6.72;;;3.65;;
50355;SDS011;36264;51.296;-0.602;2023-06-10T03:15:51;6.75;;;3.88;;
50355;SDS011;36264;51.296;-0.602;2023-06-10T03:18:16;8.52;;;4.35;;
50355;SDS011;36264;51.296;-0.602;2023-06-10T03:20:42;6.03;;;3.22;;
50355;SDS011;36264;51.296;-0.602;2023-06-10T03:23:09;5.93;;;3.20;;
50355;SDS011;36264;51.296;-0.602;2023-06-10T03:25:35;7.50;;;4.15;;
50355;SDS011;36264;51.296;-0.602;2023-06-10T03:28:00;8.50;;;3.78;;
50355;SDS011;36264;51.296;-0.602;2023-06-10T03:30:27;8.65;;;4.15;;
50355;SDS011;36264;51.296;-0.602;2023-06-10T03:32:52;12.00;;;4.72;;
50355;SDS011;36264;51.296;-0.602;2023-06-10T03:35:18;6.30;;;3.65;;
50355;SDS011;36264;51.296;-0.602;2023-06-10T03:37:43;7.35;;;3.72;;
50355;SDS011;36264;51.296;-0.602;2023-06-10T03:40:09;8.00;;;3.70;;
50355;SDS011;36264;51.296;-0.602;2023-06-10T03:42:35;6.50;;;3.50;;
50355;SDS011;36264;51.296;-0.602;2023-06-10T03:45:01;8.23;;;4.20;;
50355;SDS011;36264;51.296;-0.602;2023-06-10T03:47:32;6.38;;;3.40;;
50355;SDS011;36264;51.296;-0.602;2023-06-10T03:49:59;7.18;;;3.53;;
50355;SDS011;36264;51.296;-0.602;2023-06-10T03:52:25;7.22;;;3.75;;
50355;SDS011;36264;51.296;-0.602;2023-06-10T03:54:50;5.50;;;3.35;;
50355;SDS011;36264;51.296;-0.602;2023-06-10T03:57:15;7.03;;;3.35;;
50355;SDS011;36264;51.296;-0.602;2023-06-10T03:59:41;9.65;;;4.40;;
50355;SDS011;36264;51.296;-0.602;2023-06-10T04:02:06;9.15;;;4.22;;
50355;SDS011;36264;51.296;-0.602;2023-06-10T04:04:33;7.20;;;3.58;;
50355;SDS011;36264;51.296;-0.602;2023-06-10T04:06:59;10.05;;;4.25;;
50355;SDS011;36264;51.296;-0.602;2023-06-10T04:09:24;10.45;;;4.53;;
50355;SDS011;36264;51.296;-0.602;2023-06-10T04:11:50;11.23;;;4.60;;
50355;SDS011;36264;51.296;-0.602;2023-06-10T04:14:16;7.22;;;3.80;;
50355;SDS011;36264;51.296;-0.602;2023-06-10T04:16:41;7.78;;;3.45;;
50355;SDS011;36264;51.296;-0.602;2023-06-10T04:19:07;5.70;;;3.38;;
50355;SDS011;36264;51.296;-0.602;2023-06-10T04:21:33;6.93;;;3.60;;
50355;SDS011;36264;51.296;-0.602;2023-06-10T04:23:58;8.13;;;3.88;;
50355;SDS011;36264;51.296;-0.602;2023-06-10T04:26:23;5.05;;;3.08;;
50355;SDS011;36264;51.296;-0.602;2023-06-10T04:28:50;6.47;;;3.53;;
50355;SDS011;36264;51.296;-0.602;2023-06-10T04:31:16;8.55;;;3.78;;
50355;SDS011;36264;51.296;-0.602;2023-06-10T04:33:41;10.38;;;5.03;;
50355;SDS011;36264;51.296;-0.602;2023-06-10T04:36:06;9.75;;;4.10;;
50355;SDS011;36264;51.296;-0.602;2023-06-10T04:38:32;8.43;;;3.92;;
50355;SDS011;36264;51.296;-0.602;2023-06-10T04:40:57;7.53;;;3.95;;
50355;SDS011;36264;51.296;-0.602;2023-06-10T04:43:23;12.90;;;4.55;;
50355;SDS011;36264;51.296;-0.602;2023-06-10T04:45:48;8.95;;;4.15;;
50355;SDS011;36264;51.296;-0.602;2023-06-10T04:48:13;7.93;;;4.20;;
50355;SDS011;36264;51.296;-0.602;2023-06-10T04:50:39;8.75;;;3.88;;
50355;SDS011;36264;51.296;-0.602;2023-06-10T04:53:04;12.27;;;4.38;;
50355;SDS011;36264;51.296;-0.602;2023-06-10T04:55:31;8.88;;;4.35;;
50355;SDS011;36264;51.296;-0.602;2023-06-10T04:57:56;8.38;;;4.43;;
50355;SDS011;36264;51.296;-0.602;2023-06-10T05:00:22;8.38;;;4.22;;
50355;SDS011;36264;51.296;-0.602;2023-06-10T05:02:48;6.43;;;3.80;;
50355;SDS011;36264;51.296;-0.602;2023-06-10T05:05:15;7.18;;;3.90;;
50355;SDS011;36264;51.296;-0.602;2023-06-10T05:07:41;10.50;;;4.63;;
50355;SDS011;36264;51.296;-0.602;2023-06-10T05:10:07;7.00;;;3.50;;
50355;SDS011;36264;51.296;-0.602;2023-06-10T05:12:32;7.05;;;3.60;;
50355;SDS011;36264;51.296;-0.602;2023-06-10T05:14:58;8.93;;;3.83;;
50355;SDS011;36264;51.296;-0.602;2023-06-10T05:17:23;8.20;;;3.78;;
50355;SDS011;36264;51.296;-0.602;2023-06-10T05:19:50;10.60;;;3.97;;
50355;SDS011;36264;51.296;-0.602;2023-06-10T05:22:16;11.70;;;5.13;;
50355;SDS011;36264;51.296;-0.602;2023-06-10T05:24:43;12.65;;;5.80;;
50355;SDS011;36264;51.296;-0.602;2023-06-10T05:27:09;9.95;;;4.47;;
50355;SDS011;36264;51.296;-0.602;2023-06-10T05:29:34;9.52;;;4.85;;
50355;SDS011;36264;51.296;-0.602;2023-06-10T05:31:59;7.00;;;4.30;;
50355;SDS011;36264;51.296;-0.602;2023-06-10T05:36:58;7.10;;;3.88;;
50355;SDS011;36264;51.296;-0.602;2023-06-10T05:39:24;8.35;;;4.20;;
50355;SDS011;36264;51.296;-0.602;2023-06-10T05:41:49;11.75;;;4.47;;
50355;SDS011;36264;51.296;-0.602;2023-06-10T05:44:15;7.78;;;4.20;;
50355;SDS011;36264;51.296;-0.602;2023-06-10T05:46:40;7.85;;;4.03;;
50355;SDS011;36264;51.296;-0.602;2023-06-10T05:49:05;7.60;;;3.70;;
50355;SDS011;36264;51.296;-0.602;2023-06-10T05:51:31;9.25;;;4.30;;
50355;SDS011;36264;51.296;-0.602;2023-06-10T05:53:56;8.02;;;4.43;;
50355;SDS011;36264;51.296;-0.602;2023-06-10T05:56:22;9.77;;;3.92;;
50355;SDS011;36264;51.296;-0.602;2023-06-10T05:58:48;6.90;;;4.10;;
50355;SDS011;36264;51.296;-0.602;2023-06-10T06:01:13;5.88;;;3.63;;
50355;SDS011;36264;51.296;-0.602;2023-06-10T06:03:39;9.38;;;4.00;;
50355;SDS011;36264;51.296;-0.602;2023-06-10T06:06:05;8.32;;;3.60;;
50355;SDS011;36264;51.296;-0.602;2023-06-10T06:08:30;5.78;;;3.33;;
50355;SDS011;36264;51.296;-0.602;2023-06-10T06:10:55;11.48;;;4.30;;
50355;SDS011;36264;51.296;-0.602;2023-06-10T06:13:21;7.63;;;3.63;;
50355;SDS011;36264;51.296;-0.602;2023-06-10T06:15:46;7.93;;;4.00;;
50355;SDS011;36264;51.296;-0.602;2023-06-10T06:18:12;12.40;;;5.38;;
50355;SDS011;36264;51.296;-0.602;2023-06-10T06:20:37;8.65;;;4.65;;
50355;SDS011;36264;51.296;-0.602;2023-06-10T06:23:02;7.70;;;3.80;;
50355;SDS011;36264;51.296;-0.602;2023-06-10T06:25:28;10.23;;;4.50;;
50355;SDS011;36264;51.296;-0.602;2023-06-10T06:27:53;7.30;;;3.60;;
50355;SDS011;36264;51.296;-0.602;2023-06-10T06:30:19;12.63;;;4.97;;
50355;SDS011;36264;51.296;-0.602;2023-06-10T06:32:44;7.88;;;5.07;;
50355;SDS011;36264;51.296;-0.602;2023-06-10T06:35:10;8.20;;;4.28;;
50355;SDS011;36264;51.296;-0.602;2023-06-10T06:37:35;11.65;;;5.82;;
50355;SDS011;36264;51.296;-0.602;2023-06-10T06:40:01;10.35;;;4.85;;
50355;SDS011;36264;51.296;-0.602;2023-06-10T06:42:28;8.80;;;4.68;;
50355;SDS011;36264;51.296;-0.602;2023-06-10T06:44:54;9.43;;;4.40;;
50355;SDS011;36264;51.296;-0.602;2023-06-10T06:47:19;13.52;;;5.30;;
50355;SDS011;36264;51.296;-0.602;2023-06-10T06:49:45;13.07;;;5.57;;
50355;SDS011;36264;51.296;-0.602;2023-06-10T06:52:11;11.20;;;5.72;;
50355;SDS011;36264;51.296;-0.602;2023-06-10T06:54:37;9.93;;;4.60;;
50355;SDS011;36264;51.296;-0.602;2023-06-10T06:57:02;10.68;;;5.55;;
50355;SDS011;36264;51.296;-0.602;2023-06-10T06:59:28;12.50;;;5.10;;
50355;SDS011;36264;51.296;-0.602;2023-06-10T07:01:53;7.97;;;4.55;;
50355;SDS011;36264;51.296;-0.602;2023-06-10T07:04:19;11.30;;;5.72;;
50355;SDS011;36264;51.296;-0.602;2023-06-10T07:06:46;10.95;;;4.60;;
50355;SDS011;36264;51.296;-0.602;2023-06-10T07:09:12;9.82;;;4.47;;
50355;SDS011;36264;51.296;-0.602;2023-06-10T07:11:38;9.50;;;4.28;;
50355;SDS011;36264;51.296;-0.602;2023-06-10T07:14:03;7.47;;;4.00;;
50355;SDS011;36264;51.296;-0.602;2023-06-10T07:16:29;9.18;;;4.35;;
50355;SDS011;36264;51.296;-0.602;2023-06-10T07:18:54;9.27;;;5.07;;
50355;SDS011;36264;51.296;-0.602;2023-06-10T07:21:20;9.50;;;4.35;;
50355;SDS011;36264;51.296;-0.602;2023-06-10T07:23:45;9.10;;;4.32;;
50355;SDS011;36264;51.296;-0.602;2023-06-10T07:26:11;10.65;;;5.43;;
50355;SDS011;36264;51.296;-0.602;2023-06-10T07:28:38;10.38;;;4.65;;
50355;SDS011;36264;51.296;-0.602;2023-06-10T07:31:04;8.32;;;4.35;;
50355;SDS011;36264;51.296;-0.602;2023-06-10T07:33:30;10.25;;;5.03;;
50355;SDS011;36264;51.296;-0.602;2023-06-10T07:35:55;6.47;;;4.10;;
50355;SDS011;36264;51.296;-0.602;2023-06-10T07:38:21;7.90;;;4.25;;
50355;SDS011;36264;51.296;-0.602;2023-06-10T07:40:46;8.38;;;4.15;;
50355;SDS011;36264;51.296;-0.602;2023-06-10T07:43:12;9.55;;;4.70;;
50355;SDS011;36264;51.296;-0.602;2023-06-10T07:45:39;8.90;;;4.20;;
50355;SDS011;36264;51.296;-0.602;2023-06-10T07:48:05;6.85;;;3.80;;
50355;SDS011;36264;51.296;-0.602;2023-06-10T07:50:30;8.20;;;4.32;;
50355;SDS011;36264;51.296;-0.602;2023-06-10T07:52:55;12.55;;;5.85;;
50355;SDS011;36264;51.296;-0.602;2023-06-10T07:55:21;11.93;;;5.15;;
50355;SDS011;36264;51.296;-0.602;2023-06-10T07:57:46;11.25;;;4.80;;
50355;SDS011;36264;51.296;-0.602;2023-06-10T08:00:11;11.18;;;5.70;;
50355;SDS011;36264;51.296;-0.602;2023-06-10T08:02:37;13.95;;;6.18;;
50355;SDS011;36264;51.296;-0.602;2023-06-10T08:05:03;11.73;;;5.30;;
50355;SDS011;36264;51.296;-0.602;2023-06-10T08:07:28;7.55;;;4.55;;
50355;SDS011;36264;51.296;-0.602;2023-06-10T08:09:53;8.20;;;4.82;;
50355;SDS011;36264;51.296;-0.602;2023-06-10T08:12:19;8.68;;;4.32;;
50355;SDS011;36264;51.296;-0.602;2023-06-10T08:14:45;7.80;;;3.55;;
50355;SDS011;36264;51.296;-0.602;2023-06-10T08:17:10;7.88;;;3.72;;
50355;SDS011;36264;51.296;-0.602;2023-06-10T08:19:36;9.93;;;4.65;;
50355;SDS011;36264;51.296;-0.602;2023-06-10T08:22:01;10.00;;;5.10;;
50355;SDS011;36264;51.296;-0.602;2023-06-10T08:24:27;9.20;;;4.43;;
50355;SDS011;36264;51.296;-0.602;2023-06-10T08:26:52;6.53;;;3.92;;
50355;SDS011;36264;51.296;-0.602;2023-06-10T08:29:17;7.95;;;4.50;;
50355;SDS011;36264;51.296;-0.602;2023-06-10T08:31:43;8.45;;;4.15;;
50355;SDS011;36264;51.296;-0.602;2023-06-10T08:34:09;8.38;;;4.50;;
50355;SDS011;36264;51.296;-0.602;2023-06-10T08:36:34;7.53;;;4.18;;
50355;SDS011;36264;51.296;-0.602;2023-06-10T08:39:00;9.77;;;4.22;;
50355;SDS011;36264;51.296;-0.602;2023-06-10T08:41:28;10.75;;;5.45;;
50355;SDS011;36264;51.296;-0.602;2023-06-10T08:46:47;9.38;;;4.30;;
50355;SDS011;36264;51.296;-0.602;2023-06-10T08:49:15;7.82;;;4.07;;
50355;SDS011;36264;51.296;-0.602;2023-06-10T08:51:46;8.30;;;4.18;;
50355;SDS011;36264;51.296;-0.602;2023-06-10T08:54:17;20.58;;;5.15;;
50355;SDS011;36264;51.296;-0.602;2023-06-10T08:56:45;9.50;;;4.53;;
50355;SDS011;36264;51.296;-0.602;2023-06-10T08:59:16;15.23;;;5.10;;
50355;SDS011;36264;51.296;-0.602;2023-06-10T09:01:42;9.80;;;4.28;;
50355;SDS011;36264;51.296;-0.602;2023-06-10T09:04:09;11.73;;;4.88;;
50355;SDS011;36264;51.296;-0.602;2023-06-10T09:06:35;10.77;;;4.10;;
50355;SDS011;36264;51.296;-0.602;2023-06-10T09:09:01;8.75;;;4.25;;
50355;SDS011;36264;51.296;-0.602;2023-06-10T09:11:28;9.23;;;4.50;;
50355;SDS011;36264;51.296;-0.602;2023-06-10T09:13:53;6.93;;;4.25;;
50355;SDS011;36264;51.296;-0.602;2023-06-10T09:16:19;10.55;;;4.82;;
50355;SDS011;36264;51.296;-0.602;2023-06-10T09:18:44;7.95;;;4.40;;
50355;SDS011;36264;51.296;-0.602;2023-06-10T09:21:10;8.88;;;4.47;;
50355;SDS011;36264;51.296;-0.602;2023-06-10T09:23:36;8.43;;;4.40;;
50355;SDS011;36264;51.296;-0.602;2023-06-10T09:26:02;9.20;;;4.20;;
50355;SDS011;36264;51.296;-0.602;2023-06-10T09:28:30;9.27;;;4.82;;
50355;SDS011;36264;51.296;-0.602;2023-06-10T09:31:05;8.95;;;4.45;;
50355;SDS011;36264;51.296;-0.602;2023-06-10T09:33:32;6.63;;;3.83;;
50355;SDS011;36264;51.296;-0.602;2023-06-10T09:36:01;6.88;;;3.78;;
50355;SDS011;36264;51.296;-0.602;2023-06-10T09:38:31;8.88;;;4.18;;
50355;SDS011;36264;51.296;-0.602;2023-06-10T09:40:57;8.80;;;3.92;;
50355;SDS011;36264;51.296;-0.602;2023-06-10T09:43:23;10.65;;;4.35;;
50355;SDS011;36264;51.296;-0.602;2023-06-10T09:46:03;5.78;;;3.70;;
50355;SDS011;36264;51.296;-0.602;2023-06-10T09:48:28;10.60;;;4.40;;
50355;SDS011;36264;51.296;-0.602;2023-06-10T09:50:54;7.13;;;4.03;;
50355;SDS011;36264;51.296;-0.602;2023-06-10T09:53:20;9.60;;;5.00;;
50355;SDS011;36264;51.296;-0.602;2023-06-10T09:55:45;8.45;;;4.20;;
50355;SDS011;36264;51.296;-0.602;2023-06-10T09:58:11;8.88;;;4.75;;
50355;SDS011;36264;51.296;-0.602;2023-06-10T10:00:36;7.32;;;4.00;;
50355;SDS011;36264;51.296;-0.602;2023-06-10T10:03:01;7.97;;;4.35;;
50355;SDS011;36264;51.296;-0.602;2023-06-10T10:05:27;7.18;;;4.32;;
50355;SDS011;36264;51.296;-0.602;2023-06-10T10:07:53;10.68;;;4.88;;
50355;SDS011;36264;51.296;-0.602;2023-06-10T10:10:19;11.65;;;5.28;;
50355;SDS011;36264;51.296;-0.602;2023-06-10T10:12:46;8.02;;;4.43;;
50355;SDS011;36264;51.296;-0.602;2023-06-10T10:15:13;6.28;;;3.97;;
50355;SDS011;36264;51.296;-0.602;2023-06-10T10:17:44;5.95;;;3.75;;
50355;SDS011;36264;51.296;-0.602;2023-06-10T10:20:14;9.85;;;4.38;;
50355;SDS011;36264;51.296;-0.602;2023-06-10T10:22:45;10.73;;;6.05;;
50355;SDS011;36264;51.296;-0.602;2023-06-10T10:25:23;9.90;;;5.00;;
50355;SDS011;36264;51.296;-0.602;2023-06-10T10:30:17;7.15;;;4.10;;
50355;SDS011;36264;51.296;-0.602;2023-06-10T10:32:52;6.68;;;4.15;;
50355;SDS011;36264;51.296;-0.602;2023-06-10T10:35:24;10.25;;;5.40;;
50355;SDS011;36264;51.296;-0.602;2023-06-10T10:37:53;9.13;;;5.00;;
50355;SDS011;36264;51.296;-0.602;2023-06-10T10:40:23;8.10;;;4.13;;
50355;SDS011;36264;51.296;-0.602;2023-06-10T10:42:49;7.30;;;4.38;;
50355;SDS011;36264;51.296;-0.602;2023-06-10T10:45:16;8.30;;;4.07;;
50355;SDS011;36264;51.296;-0.602;2023-06-10T10:47:42;7.50;;;4.68;;
50355;SDS011;36264;51.296;-0.602;2023-06-10T10:50:13;6.60;;;4.30;;
50355;SDS011;36264;51.296;-0.602;2023-06-10T10:52:54;7.53;;;4.72;;
50355;SDS011;36264;51.296;-0.602;2023-06-10T10:55:27;8.13;;;4.40;;
50355;SDS011;36264;51.296;-0.602;2023-06-10T11:08:06;7.13;;;4.22;;
50355;SDS011;36264;51.296;-0.602;2023-06-10T11:10:33;8.35;;;4.88;;
50355;SDS011;36264;51.296;-0.602;2023-06-10T11:13:12;9.65;;;4.65;;
50355;SDS011;36264;51.296;-0.602;2023-06-10T11:15:39;9.70;;;5.30;;
50355;SDS011;36264;51.296;-0.602;2023-06-10T11:18:13;9.85;;;4.38;;
50355;SDS011;36264;51.296;-0.602;2023-06-10T11:20:52;7.60;;;4.75;;
50355;SDS011;36264;51.296;-0.602;2023-06-10T11:31:24;7.68;;;5.38;;
50355;SDS011;36264;51.296;-0.602;2023-06-10T11:33:52;7.13;;;4.30;;
50355;SDS011;36264;51.296;-0.602;2023-06-10T11:36:28;7.55;;;4.43;;
50355;SDS011;36264;51.296;-0.602;2023-06-10T11:38:58;7.70;;;4.28;;
50355;SDS011;36264;51.296;-0.602;2023-06-10T11:41:24;9.35;;;5.18;;
50355;SDS011;36264;51.296;-0.602;2023-06-10T11:43:54;9.07;;;4.43;;
50355;SDS011;36264;51.296;-0.602;2023-06-10T11:46:23;6.00;;;4.43;;
50355;SDS011;36264;51.296;-0.602;2023-06-10T11:48:52;8.43;;;4.28;;
50355;SDS011;36264;51.296;-0.602;2023-06-10T11:51:18;9.52;;;4.28;;
50355;SDS011;36264;51.296;-0.602;2023-06-10T11:53:44;6.47;;;4.00;;
50355;SDS011;36264;51.296;-0.602;2023-06-10T11:56:10;7.13;;;3.55;;
50355;SDS011;36264;51.296;-0.602;2023-06-10T11:58:36;7.13;;;3.90;;
50355;SDS011;36264;51.296;-0.602;2023-06-10T12:01:01;5.47;;;3.67;;
50355;SDS011;36264;51.296;-0.602;2023-06-10T12:03:27;4.97;;;3.78;;
50355;SDS011;36264;51.296;-0.602;2023-06-10T12:06:03;6.13;;;3.25;;
50355;SDS011;36264;51.296;-0.602;2023-06-10T12:08:30;7.50;;;3.72;;
50355;SDS011;36264;51.296;-0.602;2023-06-10T12:10:56;6.68;;;4.10;;
50355;SDS011;36264;51.296;-0.602;2023-06-10T12:13:22;5.78;;;3.95;;
50355;SDS011;36264;51.296;-0.602;2023-06-10T12:15:49;6.88;;;4.18;;
50355;SDS011;36264;51.296;-0.602;2023-06-10T12:18:18;6.63;;;3.70;;
50355;SDS011;36264;51.296;-0.602;2023-06-10T12:20:47;7.45;;;3.88;;
50355;SDS011;36264;51.296;-0.602;2023-06-10T12:23:17;6.65;;;4.00;;
50355;SDS011;36264;51.296;-0.602;2023-06-10T12:25:53;5.32;;;3.67;;
50355;SDS011;36264;51.296;-0.602;2023-06-10T12:28:22;7.95;;;4.18;;
50355;SDS011;36264;51.296;-0.602;2023-06-10T12:30:49;4.93;;;3.63;;
50355;SDS011;36264;51.296;-0.602;2023-06-10T12:33:21;4.97;;;3.88;;
50355;SDS011;36264;51.296;-0.602;2023-06-10T12:35:47;6.50;;;3.65;;
50355;SDS011;36264;51.296;-0.602;2023-06-10T12:38:14;7.78;;;3.80;;
50355;SDS011;36264;51.296;-0.602;2023-06-10T12:40:39;6.40;;;3.80;;
50355;SDS011;36264;51.296;-0.602;2023-06-10T12:43:05;4.68;;;3.58;;
50355;SDS011;36264;51.296;-0.602;2023-06-10T12:45:32;8.80;;;4.35;;
50355;SDS011;36264;51.296;-0.602;2023-06-10T12:50:57;5.07;;;3.15;;
50355;SDS011;36264;51.296;-0.602;2023-06-10T12:53:23;4.90;;;3.35;;
50355;SDS011;36264;51.296;-0.602;2023-06-10T12:55:51;5.63;;;3.63;;
50355;SDS011;36264;51.296;-0.602;2023-06-10T12:58:18;4.95;;;3.65;;
50355;SDS011;36264;51.296;-0.602;2023-06-10T13:00:44;4.63;;;3.45;;
50355;SDS011;36264;51.296;-0.602;2023-06-10T13:03:09;6.75;;;3.30;;
50355;SDS011;36264;51.296;-0.602;2023-06-10T13:05:35;4.90;;;3.28;;
50355;SDS011;36264;51.296;-0.602;2023-06-10T13:08:03;4.57;;;3.60;;
50355;SDS011;36264;51.296;-0.602;2023-06-10T13:10:30;5.43;;;3.35;;
50355;SDS011;36264;51.296;-0.602;2023-06-10T13:12:55;5.53;;;3.65;;
50355;SDS011;36264;51.296;-0.602;2023-06-10T13:15:21;5.32;;;3.63;;
50355;SDS011;36264;51.296;-0.602;2023-06-10T13:17:46;5.05;;;3.22;;
50355;SDS011;36264;51.296;-0.602;2023-06-10T13:20:14;4.35;;;3.10;;
50355;SDS011;36264;51.296;-0.602;2023-06-10T13:22:41;4.75;;;2.95;;
50355;SDS011;36264;51.296;-0.602;2023-06-10T13:25:07;4.88;;;3.00;;
50355;SDS011;36264;51.296;-0.602;2023-06-10T13:27:33;3.92;;;2.83;;
50355;SDS011;36264;51.296;-0.602;2023-06-10T13:29:59;4.43;;;3.30;;
50355;SDS011;36264;51.296;-0.602;2023-06-10T13:32:24;5.95;;;3.08;;
50355;SDS011;36264;51.296;-0.602;2023-06-10T13:34:50;4.35;;;3.08;;
50355;SDS011;36264;51.296;-0.602;2023-06-10T13:37:16;4.43;;;3.25;;
50355;SDS011;36264;51.296;-0.602;2023-06-10T13:39:45;3.85;;;2.85;;
50355;SDS011;36264;51.296;-0.602;2023-06-10T13:42:15;4.00;;;2.75;;
50355;SDS011;36264;51.296;-0.602;2023-06-10T13:44:44;3.80;;;2.80;;
50355;SDS011;36264;51.296;-0.602;2023-06-10T13:47:09;3.90;;;2.75;;
50355;SDS011;36264;51.296;-0.602;2023-06-10T13:49:35;4.68;;;2.90;;
50355;SDS011;36264;51.296;-0.602;2023-06-10T13:52:01;5.15;;;3.50;;
50355;SDS011;36264;51.296;-0.602;2023-06-10T13:54:26;6.18;;;3.10;;
50355;SDS011;36264;51.296;-0.602;2023-06-10T13:56:52;4.40;;;2.80;;
50355;SDS011;36264;51.296;-0.602;2023-06-10T13:59:18;3.63;;;2.90;;
50355;SDS011;36264;51.296;-0.602;2023-06-10T14:01:44;5.35;;;3.20;;
50355;SDS011;36264;51.296;-0.602;2023-06-10T14:04:09;4.97;;;3.10;;
50355;SDS011;36264;51.296;-0.602;2023-06-10T14:06:35;4.18;;;2.90;;
50355;SDS011;36264;51.296;-0.602;2023-06-10T14:09:00;4.03;;;2.80;;
50355;SDS011;36264;51.296;-0.602;2023-06-10T14:11:26;4.85;;;3.05;;
50355;SDS011;36264;51.296;-0.602;2023-06-10T14:13:51;4.00;;;3.03;;
50355;SDS011;36264;51.296;-0.602;2023-06-10T14:16:17;5.30;;;3.38;;
50355;SDS011;36264;51.296;-0.602;2023-06-10T14:18:42;5.38;;;3.17;;
50355;SDS011;36264;51.296;-0.602;2023-06-10T14:21:07;4.78;;;3.33;;
50355;SDS011;36264;51.296;-0.602;2023-06-10T14:23:33;6.90;;;3.60;;
50355;SDS011;36264;51.296;-0.602;2023-06-10T14:25:58;4.47;;;3.75;;
50355;SDS011;36264;51.296;-0.602;2023-06-10T14:28:24;4.78;;;4.38;;
50355;SDS011;36264;51.296;-0.602;2023-06-10T14:30:51;6.35;;;4.72;;
50355;SDS011;36264;51.296;-0.602;2023-06-10T14:33:17;5.50;;;5.00;;
50355;SDS011;36264;51.296;-0.602;2023-06-10T14:35:43;6.20;;;5.32;;
50355;SDS011;36264;51.296;-0.602;2023-06-10T14:38:08;5.95;;;5.45;;
50355;SDS011;36264;51.296;-0.602;2023-06-10T14:40:33;6.50;;;6.00;;
50355;SDS011;36264;51.296;-0.602;2023-06-10T14:42:59;7.25;;;6.65;;
50355;SDS011;36264;51.296;-0.602;2023-06-10T14:45:26;7.70;;;6.90;;
50355;SDS011;36264;51.296;-0.602;2023-06-10T14:47:52;7.50;;;6.90;;
50355;SDS011;36264;51.296;-0.602;2023-06-10T14:50:17;8.13;;;7.33;;
50355;SDS011;36264;51.296;-0.602;2023-06-10T14:52:42;7.43;;;6.80;;
50355;SDS011;36264;51.296;-0.602;2023-06-10T14:55:08;7.33;;;6.73;;
50355;SDS011;36264;51.296;-0.602;2023-06-10T14:57:34;7.90;;;7.20;;
50355;SDS011;36264;51.296;-0.602;2023-06-10T14:59:59;7.70;;;7.10;;